createdAt,value
2023-12-03T00:01:58.063Z,50.06
2023-12-03T00:04:26.217Z,51.04
2023-12-03T00:06:55.635Z,50.20
2023-12-03T00:09:23.398Z,50.16
2023-12-03T00:11:51.484Z,50.42
2023-12-03T00:14:19.135Z,50.15
2023-12-03T00:16:47.064Z,50.34
2023-12-03T00:19:14.892Z,50.74
2023-12-03T00:21:43.007Z,50.78
2023-12-03T00:24:12.131Z,51.09
2023-12-03T00:26:40.184Z,51.31
2023-12-03T00:29:07.872Z,50.93
2023-12-03T00:31:36.847Z,51.21
2023-12-03T00:34:04.604Z,51.51
2023-12-03T00:36:34.239Z,50.93
2023-12-03T00:39:02.883Z,50.81
2023-12-03T00:41:35.209Z,50.83
2023-12-03T00:44:03.432Z,51.08
2023-12-03T00:46:31.061Z,51.19
2023-12-03T00:49:01.492Z,51.82
2023-12-03T00:51:29.285Z,51.27
2023-12-03T00:53:59.944Z,51.59
2023-12-03T00:56:27.782Z,51.91
2023-12-03T00:58:57.525Z,51.91
2023-12-03T01:01:25.242Z,51.34
2023-12-03T01:03:54.250Z,51.83
2023-12-03T01:06:21.906Z,51.90
2023-12-03T01:08:49.752Z,52.31
2023-12-03T01:11:34.410Z,51.22
2023-12-03T01:14:05.953Z,52.21
2023-12-03T01:16:33.946Z,51.91
2023-12-03T01:19:02.210Z,52.30
2023-12-03T01:21:30.245Z,51.42
2023-12-03T01:23:58.149Z,51.76
2023-12-03T01:26:25.933Z,52.20
2023-12-03T01:28:54.447Z,51.36
2023-12-03T01:31:23.833Z,51.94
2023-12-03T01:33:51.726Z,51.88
2023-12-03T01:36:19.547Z,51.38
2023-12-03T01:38:47.331Z,51.50
2023-12-03T01:41:15.108Z,51.68
2023-12-03T01:43:50.166Z,52.15
2023-12-03T01:46:18.300Z,52.61
2023-12-03T01:48:47.603Z,52.35
2023-12-03T01:51:15.576Z,52.22
2023-12-03T01:53:43.978Z,52.13
2023-12-03T01:56:12.932Z,52.21
2023-12-03T01:58:42.946Z,53.11
2023-12-03T02:01:10.951Z,52.94
2023-12-03T02:03:38.714Z,52.42
2023-12-03T02:06:08.907Z,52.48
2023-12-03T02:08:36.892Z,52.15
2023-12-03T02:11:05.265Z,52.25
2023-12-03T02:13:34.953Z,52.32
2023-12-03T02:16:02.663Z,52.18
2023-12-03T02:18:31.280Z,52.91
2023-12-03T02:20:59.093Z,52.31
2023-12-03T02:23:30.716Z,52.48
2023-12-03T02:25:58.604Z,52.80
2023-12-03T02:28:26.518Z,53.00
2023-12-03T02:30:54.374Z,53.00
2023-12-03T02:33:22.226Z,53.09
2023-12-03T02:35:49.999Z,52.65
2023-12-03T02:38:17.936Z,53.26
2023-12-03T02:40:47.172Z,52.65
2023-12-03T02:43:14.931Z,52.78
2023-12-03T02:45:42.708Z,52.78
2023-12-03T02:48:10.636Z,52.93
2023-12-03T02:50:38.520Z,52.91
2023-12-03T02:53:06.337Z,52.89
2023-12-03T02:55:34.092Z,53.51
2023-12-03T02:58:03.259Z,52.95
2023-12-03T03:00:30.993Z,53.23
2023-12-03T03:02:58.727Z,53.04
2023-12-03T03:05:26.607Z,52.84
2023-12-03T03:07:55.082Z,54.17
2023-12-03T03:10:22.825Z,53.36
2023-12-03T03:12:50.649Z,52.94
2023-12-03T03:15:20.202Z,52.83
2023-12-03T03:17:48.077Z,53.02
2023-12-03T03:20:17.058Z,53.02
2023-12-03T03:22:44.868Z,52.82
2023-12-03T03:25:13.206Z,51.98
2023-12-03T03:27:41.056Z,52.19
2023-12-03T03:30:10.345Z,52.42
2023-12-03T03:32:39.853Z,52.57
2023-12-03T03:35:08.729Z,52.13
2023-12-03T03:37:36.654Z,52.11
2023-12-03T03:40:05.610Z,51.93
2023-12-03T03:42:33.633Z,52.75
2023-12-03T03:45:01.905Z,51.98
2023-12-03T03:47:30.392Z,51.98
2023-12-03T03:49:59.772Z,52.98
2023-12-03T03:52:27.966Z,52.08
2023-12-03T03:54:55.888Z,52.30
2023-12-03T03:57:23.901Z,52.30
2023-12-03T03:59:52.584Z,52.94
2023-12-03T04:02:20.531Z,52.23
2023-12-03T04:04:48.567Z,52.71
2023-12-03T04:07:18.094Z,52.33
2023-12-03T04:09:47.287Z,52.21
2023-12-03T04:12:15.347Z,52.63
2023-12-03T04:14:43.538Z,51.89
2023-12-03T04:17:11.526Z,51.78
2023-12-03T04:19:39.719Z,52.11
2023-12-03T04:22:07.686Z,52.28
2023-12-03T04:24:37.179Z,52.07
2023-12-03T04:27:05.859Z,52.25
2023-12-03T04:29:33.831Z,51.77
2023-12-03T04:32:01.866Z,51.69
2023-12-03T04:34:29.771Z,51.95
2023-12-03T04:36:58.050Z,51.91
2023-12-03T04:39:26.051Z,51.46
2023-12-03T04:41:55.527Z,52.51
2023-12-03T04:44:23.546Z,52.06
2023-12-03T04:46:51.591Z,51.90
2023-12-03T04:49:19.539Z,51.92
2023-12-03T04:51:47.835Z,51.57
2023-12-03T04:54:15.889Z,52.00
2023-12-03T04:56:44.720Z,51.54
2023-12-03T04:59:14.166Z,52.02
2023-12-03T05:01:42.206Z,52.06
2023-12-03T05:04:10.332Z,52.00
2023-12-03T05:06:38.532Z,52.20
2023-12-03T05:09:07.136Z,51.84
2023-12-03T05:11:36.722Z,51.74
2023-12-03T05:14:04.995Z,52.12
2023-12-03T05:16:34.735Z,51.68
2023-12-03T05:19:02.800Z,51.36
2023-12-03T05:21:31.050Z,51.76
2023-12-03T05:23:59.878Z,52.60
2023-12-03T05:26:27.759Z,52.25
2023-12-03T05:28:55.630Z,51.74
2023-12-03T05:31:23.548Z,52.25
2023-12-03T05:33:53.051Z,51.69
2023-12-03T05:36:22.112Z,51.88
2023-12-03T05:38:50.215Z,51.65
2023-12-03T05:41:18.460Z,51.30
2023-12-03T05:43:46.524Z,52.04
2023-12-03T05:46:14.527Z,51.79
2023-12-03T05:48:43.756Z,51.94
2023-12-03T05:51:13.259Z,52.00
2023-12-03T05:53:41.368Z,51.65
2023-12-03T05:56:12.122Z,51.63
2023-12-03T05:58:40.006Z,51.80
2023-12-03T06:01:08.463Z,51.25
2023-12-03T06:03:36.605Z,51.53
2023-12-03T06:06:04.900Z,51.53
2023-12-03T06:08:34.328Z,51.31
2023-12-03T06:11:02.302Z,51.21
2023-12-03T06:13:30.243Z,51.41
2023-12-03T06:15:58.149Z,51.11
2023-12-03T06:18:30.360Z,51.62
2023-12-03T06:20:58.159Z,50.86
2023-12-03T06:23:25.929Z,51.04
2023-12-03T06:25:55.041Z,51.25
2023-12-03T06:28:22.754Z,50.39
2023-12-03T06:30:50.579Z,51.59
2023-12-03T06:33:23.565Z,50.40
2023-12-03T06:35:51.924Z,50.65
2023-12-03T06:38:19.701Z,51.65
2023-12-03T06:40:47.475Z,50.68
2023-12-03T06:43:16.625Z,51.11
2023-12-03T06:45:44.333Z,50.52
2023-12-03T06:48:12.268Z,51.36
2023-12-03T06:50:41.274Z,51.29
2023-12-03T06:53:10.257Z,50.64
2023-12-03T06:55:37.906Z,51.11
2023-12-03T06:58:05.631Z,51.06
2023-12-03T07:00:35.022Z,50.79
2023-12-03T07:03:02.804Z,51.77
2023-12-03T07:05:30.437Z,51.66
2023-12-03T07:07:58.790Z,50.99
2023-12-03T07:10:26.424Z,51.49
2023-12-03T07:12:55.271Z,51.89
2023-12-03T07:15:25.296Z,50.84
2023-12-03T07:17:54.289Z,51.56
2023-12-03T07:20:22.096Z,51.58
2023-12-03T07:22:49.719Z,50.88
2023-12-03T07:25:18.112Z,50.78
2023-12-03T07:30:20.080Z,51.05
2023-12-03T07:32:47.890Z,51.43
2023-12-03T07:35:16.959Z,51.19
2023-12-03T07:37:44.688Z,50.91
2023-12-03T07:40:12.666Z,51.54
2023-12-03T07:42:41.870Z,50.89
2023-12-03T07:45:10.526Z,51.28
2023-12-03T07:47:38.313Z,51.58
2023-12-03T07:50:06.748Z,50.79
2023-12-03T07:52:35.919Z,50.94
2023-12-03T07:55:03.577Z,51.33
2023-12-03T07:57:31.448Z,51.28
2023-12-03T07:59:59.288Z,51.15
2023-12-03T08:02:27.016Z,50.17
2023-12-03T08:04:54.702Z,50.26
2023-12-03T08:07:22.723Z,50.44
2023-12-03T08:09:52.884Z,51.05
2023-12-03T08:12:20.723Z,50.97
2023-12-03T08:14:48.688Z,50.80
2023-12-03T08:17:16.456Z,50.56
2023-12-03T08:19:44.279Z,50.18
2023-12-03T08:22:12.987Z,50.62
2023-12-03T08:24:40.842Z,49.51
2023-12-03T08:27:10.102Z,49.98
2023-12-03T08:29:37.752Z,49.24
2023-12-03T08:32:06.092Z,49.55
2023-12-03T08:34:34.590Z,49.35
2023-12-03T08:37:09.661Z,49.23
2023-12-03T08:39:37.365Z,48.55
2023-12-03T08:42:05.789Z,48.71
2023-12-03T08:44:35.744Z,48.87
2023-12-03T08:47:05.799Z,49.30
2023-12-03T08:49:33.502Z,48.45
2023-12-03T08:52:03.376Z,49.03
2023-12-03T08:54:31.798Z,48.29
2023-12-03T08:57:00.201Z,49.11
2023-12-03T08:59:27.827Z,49.11
2023-12-03T09:01:56.958Z,48.72
2023-12-03T09:04:24.651Z,48.09
2023-12-03T09:06:52.356Z,47.73
2023-12-03T09:09:20.177Z,47.96
2023-12-03T09:11:47.824Z,47.09
2023-12-03T09:14:15.593Z,47.91
2023-12-03T09:16:43.419Z,47.30
2023-12-03T09:19:12.804Z,47.04
2023-12-03T09:21:40.755Z,47.72
2023-12-03T09:24:08.820Z,47.43
2023-12-03T09:26:36.644Z,45.73
2023-12-03T09:29:04.439Z,43.40
2023-12-03T09:31:32.350Z,39.61
2023-12-03T09:34:00.277Z,37.44
2023-12-03T09:36:30.658Z,35.46
2023-12-03T09:38:58.499Z,35.15
2023-12-03T09:41:26.487Z,34.37
2023-12-03T09:43:56.276Z,33.50
2023-12-03T09:46:25.116Z,32.98
2023-12-03T09:48:53.156Z,30.79
2023-12-03T09:51:21.022Z,30.43
2023-12-03T09:53:50.251Z,29.63
2023-12-03T09:56:20.300Z,28.33
2023-12-03T09:58:48.895Z,27.33
2023-12-03T10:01:16.780Z,26.93
2023-12-03T10:03:44.925Z,27.22
2023-12-03T10:06:13.010Z,26.18
2023-12-03T10:08:42.150Z,26.15
2023-12-03T10:11:11.941Z,24.74
2023-12-03T10:13:39.954Z,23.85
2023-12-03T10:16:10.434Z,23.50
2023-12-03T10:18:38.398Z,23.62
2023-12-03T10:21:07.603Z,22.93
2023-12-03T10:23:35.973Z,22.82
2023-12-03T10:26:16.214Z,22.87
2023-12-03T10:28:44.030Z,23.34
2023-12-03T10:31:12.980Z,23.00
2023-12-03T10:33:40.916Z,22.75
2023-12-03T10:36:10.524Z,21.74
2023-12-03T10:38:38.868Z,21.20
2023-12-03T10:41:08.435Z,21.15
2023-12-03T10:43:38.303Z,20.49
2023-12-03T10:46:07.222Z,19.49
2023-12-03T10:48:36.169Z,19.79
2023-12-03T10:51:05.896Z,19.78
2023-12-03T10:53:34.109Z,19.12
2023-12-03T10:56:03.025Z,18.51
2023-12-03T10:58:31.925Z,18.98
2023-12-03T11:01:08.246Z,18.48
2023-12-03T11:03:44.442Z,19.40
2023-12-03T11:06:12.379Z,20.29
2023-12-03T11:08:40.225Z,21.08
2023-12-03T11:11:09.476Z,22.42
2023-12-03T11:13:44.097Z,23.44
2023-12-03T11:16:16.094Z,24.68
2023-12-03T11:18:45.598Z,25.72
2023-12-03T11:21:16.912Z,26.55
2023-12-03T11:23:55.845Z,27.41
2023-12-03T11:26:25.040Z,28.49
2023-12-03T11:28:57.394Z,27.58
2023-12-03T11:31:27.673Z,26.98
2023-12-03T11:33:57.963Z,26.30
2023-12-03T11:36:36.736Z,23.95
2023-12-03T11:39:04.782Z,22.24
2023-12-03T11:41:39.300Z,20.71
2023-12-03T11:44:19.531Z,19.43
2023-12-03T11:46:49.904Z,18.73
2023-12-03T11:49:18.018Z,17.45
2023-12-03T11:51:47.605Z,16.81
2023-12-03T11:54:17.347Z,16.00
2023-12-03T11:56:45.838Z,16.32
2023-12-03T11:59:14.548Z,15.98
2023-12-03T12:01:42.267Z,16.12
2023-12-03T12:04:11.502Z,16.26
2023-12-03T12:06:39.383Z,16.38
2023-12-03T12:09:12.187Z,15.71
2023-12-03T12:11:39.896Z,16.84
2023-12-03T12:14:08.216Z,17.12
2023-12-03T12:16:38.117Z,17.71
2023-12-03T12:19:06.494Z,18.88
2023-12-03T12:21:35.764Z,19.84
2023-12-03T12:24:03.522Z,20.57
2023-12-03T12:26:31.224Z,20.92
2023-12-03T12:29:00.706Z,21.53
2023-12-03T12:31:28.802Z,22.05
2023-12-03T12:33:57.635Z,22.31
2023-12-03T12:36:25.330Z,23.04
2023-12-03T12:38:54.353Z,23.51
2023-12-03T12:41:22.398Z,23.54
2023-12-03T12:43:54.827Z,24.53
2023-12-03T12:46:22.460Z,25.82
2023-12-03T12:48:50.176Z,26.83
2023-12-03T12:51:22.386Z,27.90
2023-12-03T12:53:57.876Z,28.99
2023-12-03T12:56:25.557Z,29.67
2023-12-03T12:58:54.124Z,30.31
2023-12-03T13:01:21.803Z,31.05
2023-12-03T13:03:49.563Z,31.78
2023-12-03T13:06:17.371Z,33.30
2023-12-03T13:08:44.980Z,33.41
2023-12-03T13:11:13.937Z,34.35
2023-12-03T13:13:41.558Z,35.05
2023-12-03T13:16:10.029Z,34.78
2023-12-03T13:18:39.802Z,35.98
2023-12-03T13:21:08.318Z,35.99
2023-12-03T13:23:36.474Z,35.94
2023-12-03T13:26:04.162Z,36.56
2023-12-03T13:28:33.364Z,36.68
2023-12-03T13:31:01.804Z,36.93
2023-12-03T13:33:31.036Z,36.89
2023-12-03T13:35:59.041Z,37.08
2023-12-03T13:38:26.734Z,37.09
2023-12-03T13:40:56.043Z,37.79
2023-12-03T13:43:23.819Z,38.04
2023-12-03T13:45:53.512Z,38.64
2023-12-03T13:48:21.408Z,38.15
2023-12-03T13:50:49.118Z,38.75
2023-12-03T13:53:16.943Z,38.62
2023-12-03T13:55:44.533Z,39.54
2023-12-03T13:58:12.351Z,39.96
2023-12-03T14:00:40.327Z,40.10
2023-12-03T14:03:09.464Z,39.77
2023-12-03T14:05:37.229Z,40.36
2023-12-03T14:08:05.558Z,40.44
2023-12-03T14:10:33.271Z,40.72
2023-12-03T14:13:00.932Z,41.18
2023-12-03T14:15:29.160Z,41.00
2023-12-03T14:17:57.062Z,41.83
2023-12-03T14:20:26.216Z,41.44
2023-12-03T14:22:55.488Z,42.03
2023-12-03T14:25:23.231Z,41.88
2023-12-03T14:27:51.135Z,42.06
2023-12-03T14:30:19.385Z,42.42
2023-12-03T14:32:47.171Z,43.63
2023-12-03T14:35:14.917Z,43.76
2023-12-03T14:37:44.125Z,44.16
2023-12-03T14:40:14.928Z,44.55
2023-12-03T14:42:43.044Z,43.83
2023-12-03T14:45:12.136Z,44.07
2023-12-03T14:47:41.325Z,45.18
2023-12-03T14:50:09.781Z,44.28
2023-12-03T14:52:37.640Z,44.58
2023-12-03T14:55:08.024Z,45.37
2023-12-03T14:57:37.007Z,45.22
2023-12-03T15:00:06.998Z,45.38
2023-12-03T15:02:34.810Z,45.92
2023-12-03T15:05:05.160Z,45.46
2023-12-03T15:07:34.333Z,46.38
2023-12-03T15:10:03.279Z,46.06
2023-12-03T15:12:34.077Z,46.45
2023-12-03T15:15:02.405Z,47.18
2023-12-03T15:17:31.168Z,46.78
2023-12-03T15:19:59.120Z,46.32
2023-12-03T15:22:27.014Z,46.84
2023-12-03T15:24:55.025Z,46.50
2023-12-03T15:27:25.013Z,46.48
2023-12-03T15:29:54.061Z,46.66
2023-12-03T15:32:23.724Z,46.74
2023-12-03T15:34:51.664Z,47.15
2023-12-03T15:37:19.548Z,46.89
2023-12-03T15:39:47.228Z,46.99
2023-12-03T15:42:14.926Z,46.53
2023-12-03T15:44:42.666Z,46.79
2023-12-03T15:47:11.857Z,47.04
2023-12-03T15:49:39.662Z,47.13
2023-12-03T15:52:08.440Z,47.12
2023-12-03T15:54:36.217Z,46.68
2023-12-03T15:57:03.968Z,46.89
2023-12-03T15:59:31.842Z,46.47
2023-12-03T16:02:00.633Z,46.28
2023-12-03T16:04:29.701Z,47.50
2023-12-03T16:06:59.173Z,47.70
2023-12-03T16:09:26.916Z,47.31
2023-12-03T16:11:57.106Z,47.86
2023-12-03T16:14:24.902Z,47.00
2023-12-03T16:16:54.990Z,47.39
2023-12-03T16:19:24.378Z,47.83
2023-12-03T16:21:54.645Z,47.20
2023-12-03T16:24:22.890Z,47.53
2023-12-03T16:26:51.925Z,47.64
2023-12-03T16:29:19.999Z,47.20
2023-12-03T16:31:47.925Z,47.57
2023-12-03T16:34:17.457Z,47.04
2023-12-03T16:36:46.573Z,47.37
2023-12-03T16:39:16.048Z,47.37
2023-12-03T16:41:44.530Z,47.17
2023-12-03T16:44:12.360Z,47.48
2023-12-03T16:46:40.351Z,46.94
2023-12-03T16:49:08.298Z,47.49
2023-12-03T16:51:37.885Z,47.22
2023-12-03T16:54:06.608Z,47.51
2023-12-03T16:56:36.916Z,47.17
2023-12-03T16:59:05.101Z,47.36
2023-12-03T17:01:33.173Z,47.66
2023-12-03T17:04:00.996Z,47.92
2023-12-03T17:06:29.195Z,47.74
2023-12-03T17:08:57.337Z,47.40
2023-12-03T17:11:26.269Z,48.02
2023-12-03T17:13:55.792Z,47.90
2023-12-03T17:16:25.643Z,47.49
2023-12-03T17:18:54.055Z,47.53
2023-12-03T17:21:22.644Z,48.33
2023-12-03T17:23:51.261Z,47.88
2023-12-03T17:26:20.819Z,47.69
2023-12-03T17:28:48.826Z,48.24
2023-12-03T17:31:17.988Z,47.83
2023-12-03T17:33:46.232Z,48.39
2023-12-03T17:36:14.376Z,47.46
2023-12-03T17:38:42.112Z,47.35
2023-12-03T17:41:09.945Z,47.11
2023-12-03T17:43:37.647Z,47.59
2023-12-03T17:46:06.057Z,47.63
2023-12-03T17:48:35.598Z,48.13
2023-12-03T17:51:03.398Z,48.11
2023-12-03T17:53:31.163Z,47.30
2023-12-03T17:56:01.965Z,48.26
2023-12-03T17:58:30.111Z,47.79
2023-12-03T18:00:58.028Z,47.72
2023-12-03T18:03:26.152Z,47.42
2023-12-03T18:05:56.195Z,48.15
2023-12-03T18:08:27.972Z,47.94
2023-12-03T18:10:57.582Z,47.89
2023-12-03T18:13:25.815Z,47.80
2023-12-03T18:15:54.388Z,47.25
2023-12-03T18:18:23.329Z,48.27
2023-12-03T18:21:00.963Z,48.73
2023-12-03T18:23:30.573Z,48.82
2023-12-03T18:25:59.152Z,48.67
2023-12-03T18:28:27.269Z,49.00
2023-12-03T18:30:55.852Z,49.55
2023-12-03T18:33:24.233Z,50.26
2023-12-03T18:35:53.334Z,49.84
2023-12-03T18:38:22.542Z,50.55
2023-12-03T18:40:54.355Z,51.13
2023-12-03T18:43:23.839Z,50.98
2023-12-03T18:45:52.060Z,51.56
2023-12-03T18:48:20.129Z,51.99
2023-12-03T18:50:50.948Z,52.05
2023-12-03T18:53:18.782Z,52.02
2023-12-03T18:55:52.056Z,51.96
2023-12-03T18:58:20.241Z,51.97
2023-12-03T19:00:48.239Z,52.85
2023-12-03T19:03:16.327Z,53.17
2023-12-03T19:05:44.073Z,53.39
2023-12-03T19:08:12.188Z,53.76
2023-12-03T19:10:39.877Z,53.36
2023-12-03T19:13:16.414Z,53.28
2023-12-03T19:15:47.842Z,53.63
2023-12-03T19:18:15.871Z,54.16
2023-12-03T19:20:43.856Z,54.45
2023-12-03T19:23:11.560Z,55.13
2023-12-03T19:25:39.373Z,54.80
2023-12-03T19:28:07.209Z,55.69
2023-12-03T19:30:38.381Z,56.17
2023-12-03T19:33:07.211Z,55.76
2023-12-03T19:35:35.610Z,56.32
2023-12-03T19:38:03.398Z,56.51
2023-12-03T19:40:31.174Z,56.64
2023-12-03T19:42:58.917Z,56.52
2023-12-03T19:45:26.962Z,56.59
2023-12-03T19:47:56.382Z,56.62
2023-12-03T19:50:25.084Z,56.63
2023-12-03T19:55:27.185Z,56.60
2023-12-03T19:58:01.791Z,56.87
2023-12-03T20:00:29.589Z,56.22
2023-12-03T20:02:58.916Z,56.70
2023-12-03T20:05:26.680Z,56.75
2023-12-03T20:07:54.661Z,56.91
2023-12-03T20:10:23.483Z,56.62
2023-12-03T20:12:52.458Z,56.66
2023-12-03T20:15:25.301Z,56.71
2023-12-03T20:17:57.840Z,56.88
2023-12-03T20:20:25.550Z,56.62
2023-12-03T20:22:54.272Z,57.40
2023-12-03T20:25:22.868Z,57.22
2023-12-03T20:27:50.719Z,57.24
2023-12-03T20:30:18.830Z,57.59
2023-12-03T20:32:48.144Z,57.24
2023-12-03T20:35:17.416Z,56.96
2023-12-03T20:37:45.133Z,57.00
2023-12-03T20:40:13.896Z,56.28
2023-12-03T20:42:42.114Z,56.23
2023-12-03T20:45:11.775Z,56.28
2023-12-03T20:47:39.451Z,56.33
2023-12-03T20:50:07.801Z,56.43
2023-12-03T20:52:36.900Z,55.56
2023-12-03T20:55:05.025Z,55.90
2023-12-03T20:57:32.925Z,55.52
2023-12-03T21:00:01.000Z,55.54
2023-12-03T21:02:28.613Z,55.66
2023-12-03T21:04:56.268Z,55.73
2023-12-03T21:07:24.039Z,55.46
2023-12-03T21:10:11.404Z,55.59
2023-12-03T21:12:39.238Z,55.87
2023-12-03T21:15:08.723Z,55.75
2023-12-03T21:17:36.433Z,55.93
2023-12-03T21:20:04.207Z,55.12
2023-12-03T21:22:31.830Z,55.38
2023-12-03T21:24:59.577Z,54.95
2023-12-03T21:27:28.620Z,54.99
2023-12-03T21:29:56.393Z,54.63
2023-12-03T21:32:26.435Z,54.86
2023-12-03T21:34:54.975Z,54.82
2023-12-03T21:37:22.752Z,54.63
2023-12-03T21:39:50.560Z,55.55
2023-12-03T21:42:18.425Z,55.63
2023-12-03T21:44:47.674Z,55.49
2023-12-03T21:47:15.419Z,55.52
2023-12-03T21:49:43.782Z,55.84
2023-12-03T21:52:11.460Z,55.31
2023-12-03T21:54:39.243Z,55.07
2023-12-03T21:57:06.863Z,54.96
2023-12-03T21:59:34.505Z,55.00
2023-12-03T22:02:03.602Z,54.77
2023-12-03T22:04:31.426Z,55.00
2023-12-03T22:07:01.561Z,54.87
2023-12-03T22:09:29.414Z,54.89
2023-12-03T22:11:57.071Z,55.11
2023-12-03T22:14:24.710Z,55.12
2023-12-03T22:16:53.695Z,55.61
2023-12-03T22:19:22.805Z,55.66
2023-12-03T22:21:50.638Z,56.06
2023-12-03T22:24:18.443Z,56.03
2023-12-03T22:26:46.107Z,55.90
2023-12-03T22:29:18.155Z,55.81
2023-12-03T22:31:50.727Z,55.58
2023-12-03T22:34:18.406Z,55.35
2023-12-03T22:36:47.684Z,54.90
2023-12-03T22:39:15.491Z,54.79
2023-12-03T22:41:43.106Z,54.48
2023-12-03T22:44:12.048Z,54.99
2023-12-03T22:46:39.756Z,54.69
2023-12-03T22:49:07.495Z,54.44
2023-12-03T22:51:35.699Z,54.46
2023-12-03T22:54:04.914Z,54.06
2023-12-03T22:56:32.551Z,53.70
2023-12-03T22:59:00.569Z,53.68
2023-12-03T23:01:28.670Z,54.13
2023-12-03T23:03:56.456Z,53.64
2023-12-03T23:06:31.570Z,53.56
2023-12-03T23:09:00.386Z,53.60
2023-12-03T23:11:29.472Z,53.53
2023-12-03T23:13:58.808Z,52.97
2023-12-03T23:16:27.842Z,52.84
2023-12-03T23:18:55.857Z,52.86
2023-12-03T23:21:23.538Z,53.42
2023-12-03T23:23:51.195Z,53.00
2023-12-03T23:26:18.779Z,53.42
2023-12-03T23:28:48.567Z,52.79
2023-12-03T23:31:16.381Z,52.26
2023-12-03T23:33:44.197Z,51.97
2023-12-03T23:36:13.529Z,51.83
2023-12-03T23:38:41.786Z,51.74
2023-12-03T23:41:09.758Z,52.01
2023-12-03T23:43:37.485Z,51.51
2023-12-03T23:46:07.674Z,51.73
2023-12-03T23:48:35.425Z,51.45
2023-12-03T23:51:03.145Z,51.15
2023-12-03T23:53:30.903Z,51.59
2023-12-03T23:55:58.629Z,51.34
2023-12-03T23:58:26.326Z,50.83
